createdAt,value
2019-05-29T00:00:02.143Z,98270.14
2019-05-29T00:02:28.747Z,98273.33
2019-05-29T00:04:55.836Z,98272.82
2019-05-29T00:07:22.574Z,98277.67
2019-05-29T00:09:49.374Z,98279.02
2019-05-29T00:12:19.590Z,98284.16
2019-05-29T00:14:45.049Z,98281.28
2019-05-29T00:17:12.544Z,98283.25
2019-05-29T00:19:39.338Z,98282.74
2019-05-29T00:22:06.263Z,98290.36
2019-05-29T00:24:32.904Z,98289.65
2019-05-29T00:26:59.503Z,98295.13
2019-05-29T00:29:26.008Z,98292.83
2019-05-29T00:31:52.717Z,98289.02
2019-05-29T00:34:19.298Z,98292.33
2019-05-29T00:36:49.812Z,98296.02
2019-05-29T00:39:16.839Z,98301.20
2019-05-29T00:41:44.061Z,98302.00
2019-05-29T00:44:11.154Z,98306.98
2019-05-29T00:46:37.748Z,98311.95
2019-05-29T00:49:04.376Z,98318.64
2019-05-29T00:51:31.286Z,98316.90
2019-05-29T00:53:57.858Z,98319.58
2019-05-29T00:56:24.721Z,98326.18
2019-05-29T00:58:51.476Z,98327.80
2019-05-29T01:01:18.198Z,98327.24
2019-05-29T01:03:46.363Z,98326.08
2019-05-29T01:06:13.962Z,98334.02
2019-05-29T01:08:40.676Z,98335.59
2019-05-29T01:11:07.350Z,98336.77
2019-05-29T01:13:34.138Z,98336.36
2019-05-29T01:16:01.214Z,98335.08
2019-05-29T01:18:27.798Z,98333.53
2019-05-29T01:20:54.518Z,98337.98
2019-05-29T01:23:22.381Z,98339.92
2019-05-29T01:25:49.116Z,98334.74
2019-05-29T01:28:16.818Z,98346.70
2019-05-29T01:30:43.573Z,98332.12
2019-05-29T01:33:10.229Z,98338.18
2019-05-29T01:35:36.774Z,98334.80
2019-05-29T01:38:03.441Z,98339.39
2019-05-29T01:40:30.337Z,98337.08
2019-05-29T01:42:57.014Z,98340.73
2019-05-29T01:45:25.580Z,98341.44
2019-05-29T01:47:52.124Z,98339.27
2019-05-29T01:50:19.598Z,98347.85
2019-05-29T01:52:46.401Z,98353.20
2019-05-29T01:55:13.171Z,98355.25
2019-05-29T01:57:39.936Z,98358.56
2019-05-29T02:00:09.479Z,98355.66
2019-05-29T02:02:36.419Z,98361.39
2019-05-29T02:05:06.648Z,98366.54
2019-05-29T02:07:33.374Z,98375.41
2019-05-29T02:10:00.330Z,98380.13
2019-05-29T02:12:26.907Z,98382.09
2019-05-29T02:14:53.660Z,98383.84
2019-05-29T02:17:21.722Z,98388.33
2019-05-29T02:19:48.484Z,98396.11
2019-05-29T02:22:15.127Z,98400.80
2019-05-29T02:24:41.832Z,98401.59
2019-05-29T02:27:08.609Z,98406.81
2019-05-29T02:29:35.589Z,98402.83
2019-05-29T02:32:02.296Z,98410.22
2019-05-29T02:34:29.949Z,98411.02
2019-05-29T02:36:56.955Z,98414.09
2019-05-29T02:39:25.619Z,98425.75
2019-05-29T02:41:52.126Z,98425.70
2019-05-29T02:44:19.264Z,98426.84
2019-05-29T02:46:45.976Z,98424.47
2019-05-29T02:49:12.933Z,98429.34
2019-05-29T02:51:39.903Z,98428.27
2019-05-29T02:54:06.597Z,98434.64
2019-05-29T02:56:33.493Z,98431.52
2019-05-29T02:59:00.445Z,98434.64
2019-05-29T03:01:27.910Z,98445.70
2019-05-29T03:03:55.935Z,98442.78
2019-05-29T03:06:24.069Z,98447.64
2019-05-29T03:08:50.879Z,98450.31
2019-05-29T03:11:17.686Z,98445.92
2019-05-29T03:13:44.686Z,98448.00
2019-05-29T03:16:12.975Z,98448.58
2019-05-29T03:18:40.231Z,98456.45
2019-05-29T03:21:07.173Z,98456.31
2019-05-29T03:23:35.903Z,98461.20
2019-05-29T03:26:02.752Z,98459.56
2019-05-29T03:28:30.029Z,98465.91
2019-05-29T03:30:57.757Z,98471.41
2019-05-29T03:33:27.182Z,98470.56
2019-05-29T03:35:52.989Z,98486.50
2019-05-29T03:38:19.864Z,98483.98
2019-05-29T03:40:46.489Z,98491.80
2019-05-29T03:43:15.858Z,98494.62
2019-05-29T03:45:42.793Z,98501.34
2019-05-29T03:48:09.417Z,98505.09
2019-05-29T03:50:36.092Z,98514.26
2019-05-29T03:53:02.955Z,98513.27
2019-05-29T03:55:31.378Z,98524.99
2019-05-29T03:57:58.287Z,98525.14
2019-05-29T04:00:29.956Z,98535.87
2019-05-29T04:02:53.778Z,98527.47
2019-05-29T04:05:20.463Z,98541.86
2019-05-29T04:07:47.381Z,98543.89
2019-05-29T04:10:27.113Z,98544.27
2019-05-29T04:12:54.226Z,98555.00
2019-05-29T04:15:20.728Z,98562.25
2019-05-29T04:17:47.873Z,98559.42
2019-05-29T04:20:15.243Z,98575.12
2019-05-29T04:22:44.782Z,98571.76
2019-05-29T04:25:12.571Z,98576.36
2019-05-29T04:27:41.254Z,98577.85
2019-05-29T04:30:08.282Z,98583.92
2019-05-29T04:32:36.578Z,98590.91
2019-05-29T04:35:04.358Z,98593.20
2019-05-29T04:37:32.576Z,98599.84
2019-05-29T04:39:59.693Z,98601.15
2019-05-29T04:42:26.182Z,98611.98
2019-05-29T04:44:53.904Z,98613.82
2019-05-29T04:47:20.608Z,98619.51
2019-05-29T04:49:47.289Z,98618.86
2019-05-29T04:52:14.263Z,98631.03
2019-05-29T04:54:41.071Z,98629.36
2019-05-29T04:57:07.859Z,98635.66
2019-05-29T04:59:35.022Z,98640.48
2019-05-29T05:02:01.900Z,98644.30
2019-05-29T05:04:29.129Z,98641.78
2019-05-29T05:06:55.983Z,98653.31
2019-05-29T05:09:22.975Z,98657.16
2019-05-29T05:11:49.734Z,98666.67
2019-05-29T05:14:16.429Z,98671.88
2019-05-29T05:16:45.686Z,98674.05
2019-05-29T05:19:12.611Z,98679.92
2019-05-29T05:21:40.262Z,98686.44
2019-05-29T05:24:07.142Z,98694.62
2019-05-29T05:26:34.186Z,98700.27
2019-05-29T05:29:01.190Z,98698.75
2019-05-29T05:31:27.796Z,98711.77
2019-05-29T05:33:54.447Z,98709.78
2019-05-29T05:36:21.102Z,98716.14
2019-05-29T05:38:47.685Z,98724.12
2019-05-29T05:41:14.440Z,98729.14
2019-05-29T05:43:41.607Z,98735.13
2019-05-29T05:46:08.595Z,98741.34
2019-05-29T05:48:35.248Z,98741.66
2019-05-29T05:51:02.945Z,98754.83
2019-05-29T05:53:29.814Z,98746.16
2019-05-29T05:55:56.594Z,98747.86
2019-05-29T05:58:23.400Z,98756.55
2019-05-29T06:00:50.168Z,98766.07
2019-05-29T06:03:16.851Z,98769.09
2019-05-29T06:05:43.596Z,98779.66
2019-05-29T06:08:10.345Z,98777.31
2019-05-29T06:10:38.099Z,98781.95
2019-05-29T06:13:05.118Z,98787.09
2019-05-29T06:15:32.357Z,98787.79
2019-05-29T06:18:19.421Z,98794.27
2019-05-29T06:20:28.399Z,98800.28
2019-05-29T06:22:55.214Z,98803.10
2019-05-29T06:25:22.508Z,98808.16
2019-05-29T06:27:52.674Z,98814.38
2019-05-29T06:31:27.450Z,98822.31
2019-05-29T06:33:54.116Z,98824.85
2019-05-29T06:36:22.478Z,98830.20
2019-05-29T06:38:49.174Z,98834.41
2019-05-29T06:41:28.631Z,98844.59
2019-05-29T06:44:30.633Z,98846.10
2019-05-29T06:46:57.474Z,98848.46
2019-05-29T06:49:23.955Z,98859.15
2019-05-29T06:51:52.165Z,98866.50
2019-05-29T06:54:18.887Z,98870.82
2019-05-29T06:56:45.755Z,98877.32
2019-05-29T06:59:12.563Z,98883.02
2019-05-29T07:01:41.456Z,98892.55
2019-05-29T07:04:12.178Z,98894.36
2019-05-29T07:06:37.256Z,98900.67
2019-05-29T07:09:05.211Z,98903.34
2019-05-29T07:11:31.865Z,98901.52
2019-05-29T07:13:58.533Z,98905.51
2019-05-29T07:16:40.928Z,98915.20
2019-05-29T07:19:23.995Z,98909.53
2019-05-29T07:21:22.325Z,98910.55
2019-05-29T07:23:49.789Z,98909.88
2019-05-29T07:26:16.468Z,98924.70
2019-05-29T07:29:02.081Z,98927.55
2019-05-29T07:31:11.945Z,98928.70
2019-05-29T07:33:39.013Z,98940.91
2019-05-29T07:36:06.153Z,98938.91
2019-05-29T07:38:32.688Z,98946.59
2019-05-29T07:40:59.274Z,98950.91
2019-05-29T07:43:26.010Z,98961.27
2019-05-29T07:45:52.582Z,98967.28
2019-05-29T07:48:20.407Z,98960.92
2019-05-29T07:50:48.127Z,98970.63
2019-05-29T07:53:17.524Z,98971.95
2019-05-29T07:55:44.702Z,98974.28
2019-05-29T07:58:11.745Z,98980.81
2019-05-29T08:01:02.672Z,98979.96
2019-05-29T08:03:07.357Z,98985.97
2019-05-29T08:05:34.039Z,98988.14
2019-05-29T08:08:07.195Z,98990.30
2019-05-29T08:11:11.437Z,98991.30
2019-05-29T08:13:39.479Z,98998.30
2019-05-29T08:16:06.290Z,98998.30
2019-05-29T08:18:32.943Z,98992.30
2019-05-29T08:20:59.765Z,99005.33
2019-05-29T08:23:26.515Z,99008.14
2019-05-29T08:25:53.206Z,99011.66
2019-05-29T08:28:19.945Z,99013.34
2019-05-29T08:30:51.750Z,99017.34
2019-05-29T08:33:15.305Z,99021.00
2019-05-29T08:35:42.982Z,99022.02
2019-05-29T08:38:09.887Z,99022.69
2019-05-29T08:40:36.539Z,99026.84
2019-05-29T08:43:03.344Z,99043.88
2019-05-29T08:45:30.023Z,99041.37
2019-05-29T08:47:56.687Z,99038.03
2019-05-29T08:50:23.446Z,99046.71
2019-05-29T08:52:50.732Z,99051.39
2019-05-29T08:55:17.498Z,99055.72
2019-05-29T08:57:44.366Z,99057.72
2019-05-29T09:00:12.274Z,99064.72
2019-05-29T09:02:40.455Z,99075.19
2019-05-29T09:05:08.438Z,99078.75
2019-05-29T09:07:35.893Z,99072.91
2019-05-29T09:10:05.947Z,99074.75
2019-05-29T09:12:32.608Z,99085.25
2019-05-29T09:14:59.312Z,99090.78
2019-05-29T09:17:26.194Z,99094.77
2019-05-29T09:19:52.654Z,99096.09
2019-05-29T09:22:20.890Z,99096.41
2019-05-29T09:24:47.967Z,99101.75
2019-05-29T09:27:15.400Z,99101.59
2019-05-29T09:29:42.491Z,99104.12
2019-05-29T09:32:09.305Z,99110.79
2019-05-29T09:34:36.066Z,99116.45
2019-05-29T09:37:03.424Z,99120.95
2019-05-29T09:39:30.252Z,99125.98
2019-05-29T09:41:56.893Z,99133.45
2019-05-29T09:44:33.890Z,99131.14
2019-05-29T09:46:52.406Z,99136.85
2019-05-29T09:49:20.232Z,99139.52
2019-05-29T09:51:47.134Z,99136.16
2019-05-29T09:54:13.877Z,99135.17
2019-05-29T09:56:40.490Z,99142.53
2019-05-29T09:59:07.168Z,99145.38
2019-05-29T10:01:33.927Z,99151.20
2019-05-29T10:04:03.436Z,99149.55
2019-05-29T10:06:29.366Z,99150.02
2019-05-29T10:08:56.193Z,99154.69
2019-05-29T10:11:23.820Z,99156.85
2019-05-29T10:13:50.496Z,99156.02
2019-05-29T10:16:17.187Z,99162.86
2019-05-29T10:18:44.054Z,99163.15
2019-05-29T10:21:10.848Z,99168.97
2019-05-29T10:23:37.361Z,99173.80
2019-05-29T10:26:05.026Z,99174.14
2019-05-29T10:28:49.342Z,99181.23
2019-05-29T10:31:03.800Z,99181.76
2019-05-29T10:33:30.429Z,99185.13
2019-05-29T10:35:57.350Z,99183.80
2019-05-29T10:38:24.022Z,99185.13
2019-05-29T10:41:00.398Z,99186.45
2019-05-29T10:43:33.729Z,99188.54
2019-05-29T10:45:49.799Z,99186.92
2019-05-29T10:48:16.758Z,99190.30
2019-05-29T10:50:43.575Z,99192.81
2019-05-29T10:53:10.417Z,99189.77
2019-05-29T10:55:37.054Z,99192.17
2019-05-29T10:58:03.828Z,99193.97
2019-05-29T11:00:30.461Z,99198.34
2019-05-29T11:02:57.670Z,99199.02
2019-05-29T11:05:24.658Z,99196.03
2019-05-29T11:07:52.029Z,99197.53
2019-05-29T11:10:21.307Z,99202.30
2019-05-29T11:12:48.558Z,99208.31
2019-05-29T11:15:21.228Z,99214.47
2019-05-29T11:17:47.055Z,99209.59
2019-05-29T11:20:15.390Z,99216.27
2019-05-29T11:22:42.405Z,99212.94
2019-05-29T11:25:21.755Z,99217.29
2019-05-29T11:27:38.311Z,99222.47
2019-05-29T11:30:08.671Z,99222.33
2019-05-29T11:32:35.899Z,99224.33
2019-05-29T11:35:04.373Z,99222.31
2019-05-29T11:37:31.868Z,99227.31
2019-05-29T11:39:59.032Z,99229.00
2019-05-29T11:42:27.886Z,99233.13
2019-05-29T11:44:55.254Z,99238.30
2019-05-29T11:47:22.277Z,99237.30
2019-05-29T11:49:49.136Z,99237.66
2019-05-29T11:52:24.510Z,99240.97
2019-05-29T11:54:44.559Z,99247.63
2019-05-29T11:57:11.401Z,99244.80
2019-05-29T11:59:38.704Z,99244.15
2019-05-29T12:02:05.450Z,99242.17
2019-05-29T12:04:33.872Z,99250.34
2019-05-29T12:07:01.568Z,99247.00
2019-05-29T12:09:33.029Z,99251.30
2019-05-29T12:11:58.002Z,99258.15
2019-05-29T12:14:24.909Z,99256.66
2019-05-29T12:16:51.748Z,99258.95
2019-05-29T12:19:18.611Z,99255.81
2019-05-29T12:21:45.263Z,99262.11
2019-05-29T12:24:11.880Z,99261.23
2019-05-29T12:26:38.396Z,99262.45
2019-05-29T12:29:11.399Z,99260.59
2019-05-29T12:31:33.921Z,99265.97
2019-05-29T12:34:13.107Z,99263.00
2019-05-29T12:36:29.079Z,99270.33
2019-05-29T12:38:57.919Z,99273.94
2019-05-29T12:41:26.031Z,99273.91
2019-05-29T12:43:53.289Z,99277.58
2019-05-29T12:46:20.213Z,99274.91
2019-05-29T12:48:46.950Z,99285.95
2019-05-29T12:51:13.592Z,99282.50
2019-05-29T12:53:40.209Z,99278.72
2019-05-29T12:56:07.147Z,99280.05
2019-05-29T12:58:34.820Z,99279.71
2019-05-29T13:01:02.953Z,99279.74
2019-05-29T13:03:30.448Z,99287.91
2019-05-29T13:05:58.229Z,99290.24
2019-05-29T13:08:25.162Z,99295.58
2019-05-29T13:10:52.039Z,99302.08
2019-05-29T13:13:18.903Z,99308.42
2019-05-29T13:15:45.729Z,99310.53
2019-05-29T13:18:12.637Z,99309.20
2019-05-29T13:20:39.417Z,99309.70
2019-05-29T13:23:07.317Z,99320.70
2019-05-29T13:25:34.402Z,99324.81
2019-05-29T13:28:01.569Z,99328.98
2019-05-29T13:30:29.643Z,99327.34
2019-05-29T13:33:02.308Z,99330.41
2019-05-29T13:35:25.356Z,99333.78
2019-05-29T13:37:52.283Z,99334.10
2019-05-29T13:40:19.701Z,99338.13
2019-05-29T13:42:46.576Z,99335.44
2019-05-29T13:45:18.349Z,99333.63
2019-05-29T13:47:43.143Z,99339.44
2019-05-29T13:50:12.592Z,99340.45
2019-05-29T13:52:38.683Z,99341.59
2019-05-29T13:55:07.639Z,99344.06
2019-05-29T13:57:34.865Z,99346.92
2019-05-29T14:00:18.249Z,99343.08
2019-05-29T14:02:33.007Z,99347.44
2019-05-29T14:05:00.476Z,99347.11
2019-05-29T14:07:27.727Z,99351.27
2019-05-29T14:09:54.504Z,99356.00
2019-05-29T14:12:21.334Z,99361.78
2019-05-29T14:14:48.161Z,99359.63
2019-05-29T14:17:15.130Z,99367.20
2019-05-29T14:19:41.962Z,99365.84
2019-05-29T14:22:09.261Z,99372.86
2019-05-29T14:24:36.216Z,99368.31
2019-05-29T14:27:03.394Z,99374.11
2019-05-29T14:29:30.168Z,99369.62
2019-05-29T14:31:56.926Z,99369.42
2019-05-29T14:34:23.744Z,99369.62
2019-05-29T14:36:50.248Z,99376.81
2019-05-29T14:39:16.911Z,99379.16
2019-05-29T14:41:43.623Z,99375.31
2019-05-29T14:44:10.189Z,99372.78
2019-05-29T14:46:36.853Z,99374.60
2019-05-29T14:49:04.328Z,99368.74
2019-05-29T14:51:31.296Z,99368.45
2019-05-29T14:53:58.047Z,99368.94
2019-05-29T14:56:25.207Z,99370.47
2019-05-29T14:58:51.826Z,99369.27
2019-05-29T15:01:18.673Z,99369.84
2019-05-29T15:03:45.445Z,99365.56
2019-05-29T15:06:13.986Z,99363.92
2019-05-29T15:08:40.870Z,99364.30
2019-05-29T15:11:07.945Z,99364.30
2019-05-29T15:13:34.858Z,99366.78
2019-05-29T15:16:01.948Z,99369.83
2019-05-29T15:18:29.980Z,99370.81
2019-05-29T15:20:56.457Z,99370.34
2019-05-29T15:23:23.259Z,99372.55
2019-05-29T15:25:50.112Z,99373.69
2019-05-29T15:28:17.992Z,99375.98
2019-05-29T15:30:44.961Z,99376.20
2019-05-29T15:33:12.634Z,99377.55
2019-05-29T15:35:39.572Z,99382.69
2019-05-29T15:38:06.680Z,99384.86
2019-05-29T15:40:33.696Z,99389.06
2019-05-29T15:43:00.412Z,99386.86
2019-05-29T15:45:27.356Z,99402.73
2019-05-29T15:47:59.338Z,99403.89
2019-05-29T15:50:27.057Z,99405.91
2019-05-29T15:52:53.770Z,99412.61
2019-05-29T15:55:29.749Z,99416.23
2019-05-29T15:57:49.455Z,99417.90
2019-05-29T16:00:17.713Z,99417.54
2019-05-29T16:02:48.597Z,99426.05
2019-05-29T16:05:15.506Z,99423.92
2019-05-29T16:07:42.783Z,99421.25
2019-05-29T16:10:14.437Z,99433.10
2019-05-29T16:12:40.326Z,99435.61
2019-05-29T16:15:09.159Z,99440.76
2019-05-29T16:17:35.981Z,99438.93
2019-05-29T16:20:08.160Z,99448.64
2019-05-29T16:22:34.769Z,99447.30
2019-05-29T16:25:02.022Z,99450.95
2019-05-29T16:27:31.084Z,99445.97
2019-05-29T16:29:57.784Z,99455.28
2019-05-29T16:32:24.385Z,99455.28
2019-05-29T16:34:51.131Z,99468.11
2019-05-29T16:37:17.806Z,99463.33
2019-05-29T16:39:44.474Z,99460.27
2019-05-29T16:42:11.868Z,99455.61
2019-05-29T16:44:38.848Z,99461.44
2019-05-29T16:47:05.680Z,99460.30
2019-05-29T16:49:32.428Z,99451.34
2019-05-29T16:51:59.122Z,99448.53
2019-05-29T16:54:25.958Z,99450.84
2019-05-29T16:56:52.601Z,99452.18
2019-05-29T16:59:19.568Z,99450.19
2019-05-29T17:01:46.262Z,99452.53
2019-05-29T17:04:13.524Z,99453.38
2019-05-29T17:06:40.390Z,99453.19
2019-05-29T17:09:08.774Z,99455.17
2019-05-29T17:11:35.481Z,99450.35
2019-05-29T17:14:02.469Z,99452.73
2019-05-29T17:16:29.228Z,99450.38
2019-05-29T17:18:56.325Z,99448.39
2019-05-29T17:21:23.093Z,99452.59
2019-05-29T17:23:49.740Z,99455.58
2019-05-29T17:26:16.743Z,99466.73
2019-05-29T17:28:43.677Z,99464.01
2019-05-29T17:31:10.536Z,99467.08
2019-05-29T17:33:37.100Z,99469.84
2019-05-29T17:36:03.941Z,99469.13
2019-05-29T17:38:30.731Z,99472.91
2019-05-29T17:40:57.363Z,99476.51
2019-05-29T17:43:26.784Z,99481.48
2019-05-29T18:34:03.906Z,99548.11
2019-05-29T19:21:38.717Z,99584.86
2019-05-29T19:24:06.336Z,99584.58
2019-05-29T19:26:36.580Z,99589.96
2019-05-29T19:44:32.438Z,99602.94
2019-05-29T19:58:36.140Z,99616.00
2019-05-29T20:01:03.808Z,99620.08
2019-05-29T20:03:30.557Z,99617.08
2019-05-29T20:06:06.522Z,99628.78
2019-05-29T20:08:41.485Z,99627.96
2019-05-29T20:11:08.066Z,99616.28
2019-05-29T20:13:35.795Z,99620.87
2019-05-29T20:16:16.785Z,99621.57
2019-05-29T20:19:40.998Z,99620.60
2019-05-29T20:22:07.889Z,99627.27
2019-05-29T20:24:34.986Z,99630.47
2019-05-29T20:27:01.695Z,99632.98
2019-05-29T20:29:28.377Z,99636.30
2019-05-29T20:31:56.418Z,99632.83
2019-05-29T20:34:23.127Z,99634.16
2019-05-29T20:36:50.138Z,99638.69
2019-05-29T20:39:16.912Z,99644.94
2019-05-29T20:41:43.690Z,99644.61
2019-05-29T20:44:10.464Z,99643.28
2019-05-29T20:46:38.658Z,99648.30
2019-05-29T20:49:42.929Z,99653.44
2019-05-29T20:52:09.481Z,99655.62
2019-05-29T21:28:22.143Z,99678.30
2019-05-29T21:30:49.100Z,99677.61
2019-05-29T21:33:44.964Z,99684.91
2019-05-29T21:36:14.622Z,99676.91
2019-05-29T21:38:42.302Z,99672.86
2019-05-29T21:41:09.924Z,99676.22
2019-05-29T21:43:44.804Z,99681.91
2019-05-29T21:46:43.611Z,99679.38
2019-05-29T21:49:10.383Z,99688.37
2019-05-29T21:51:41.525Z,99684.53
2019-05-29T21:54:10.793Z,99684.48
2019-05-29T21:56:57.234Z,99687.63
2019-05-29T21:59:23.777Z,99681.29
2019-05-29T22:01:50.635Z,99686.45
2019-05-29T22:04:25.846Z,99685.12
2019-05-29T22:08:02.603Z,99681.93
2019-05-29T22:10:29.414Z,99693.81
2019-05-29T22:12:56.677Z,99693.76
2019-05-29T22:15:26.992Z,99689.88
2019-05-29T22:18:01.282Z,99678.72
2019-05-29T22:20:30.009Z,99676.91
2019-05-29T22:22:57.366Z,99672.11
2019-05-29T22:25:24.150Z,99682.39
2019-05-29T22:27:51.213Z,99680.54
2019-05-29T22:30:19.984Z,99686.03
2019-05-29T22:32:47.769Z,99683.73
2019-05-29T22:35:56.120Z,99686.88
2019-05-29T22:38:28.973Z,99681.39
2019-05-29T22:40:56.160Z,99687.03
2019-05-29T22:43:22.789Z,99684.48
2019-05-29T23:00:38.103Z,99686.77
2019-05-29T23:36:42.122Z,99690.55
2019-05-29T23:39:08.871Z,99689.22
2019-05-29T23:41:35.920Z,99689.73
2019-05-29T23:44:03.739Z,99693.53
2019-05-29T23:46:30.559Z,99687.19
2019-05-29T23:49:03.963Z,99684.04
